Sy Liara — 2BSK4 — position and weather

sailwx.info

Track history (hours):
 
Tides and Currents Weather Stations Pressure Air Temp Water Temp Dewpoint Dewpoint Depression Visibility Wind Speed Wind Dir Waves Ship Positions

Sy Liara

Last reported at 2015-Mar-27 07:32 UTC. Time now 2015-Mar-27 08:13 UTC.
Position N 17°01' W 061°47'.

Length 30 m.

Type: Sailing vessel. MMSI: 235068934.

Date/timePositionNaut miles runAvg speedWind from/ knotsBaromVisibWave heightAir tempDewpointWater temp
2015-Mar-27 07:32N 17°01' W 061°47'0 0.0
2015-Mar-27 06:32N 17°01' W 061°47'0 0.0
2015-Mar-27 05:32N 17°01' W 061°47'0 0.0
2015-Mar-27 04:32N 17°01' W 061°47'0 0.0
2015-Mar-27 03:32N 17°01' W 061°47'0 0.0
2015-Mar-27 02:32N 17°01' W 061°47'0 0.0
2015-Mar-27 01:32N 17°01' W 061°47'0 0.0
2015-Mar-27 00:32N 17°01' W 061°47'0 0.0
2015-Mar-26 23:32N 17°01' W 061°47'0 0.0
2015-Mar-26 22:32N 17°01' W 061°47'0 0.0
2015-Mar-26 21:33N 17°01' W 061°47'6 5.9
2015-Mar-26 20:33N 16°56' W 061°50'4 1.4
2015-Mar-26 17:33N 17°00' W 061°50'0 0.3
2015-Mar-26 16:08N 17°00' W 061°50'0 0.1
2015-Mar-26 13:33N 17°01' W 061°50'0 0.0
2015-Mar-26 12:33N 17°01' W 061°50'0 0.0
2015-Mar-26 11:31N 17°01' W 061°50'0 0.0
2015-Mar-26 10:24N 17°01' W 061°50'0 0.0
2015-Mar-26 09:33N 17°01' W 061°50'0 0.0
2015-Mar-26 08:33N 17°01' W 061°50'0 0.0
2015-Mar-26 07:24N 17°01' W 061°50'0 0.0
2015-Mar-26 06:31N 17°01' W 061°50'0 0.0
2015-Mar-26 04:27N 17°01' W 061°50'0 0.0
2015-Mar-26 03:31N 17°01' W 061°50'0 0.0
2015-Mar-26 02:31N 17°01' W 061°50'0 0.0
2015-Mar-26 01:22N 17°01' W 061°50'0 0.0
2015-Mar-26 00:15N 17°01' W 061°50'0 0.0
2015-Mar-25 20:19N 17°01' W 061°50'3 0.1
2015-Mar-23 21:08N 17°01' W 061°47'0 0.0
2015-Mar-23 20:32N 17°01' W 061°47'  
2015-Mar-21 13:06N 17°01' W 061°47'0 0.0
2015-Mar-21 12:33N 17°01' W 061°47'0 0.0
2015-Mar-21 11:33N 17°01' W 061°47'0 0.0
2015-Mar-21 10:33N 17°01' W 061°47'0 0.0
2015-Mar-21 09:33N 17°01' W 061°47'0 0.0
2015-Mar-21 08:33N 17°01' W 061°47'0 0.0
2015-Mar-21 07:33N 17°01' W 061°47'0 0.0
2015-Mar-21 06:33N 17°01' W 061°47'0 0.0
2015-Mar-21 05:33N 17°01' W 061°47'0 0.0
2015-Mar-21 04:33N 17°01' W 061°47'0 0.0
2015-Mar-21 03:30N 17°01' W 061°47'0 0.0
2015-Mar-21 02:33N 17°01' W 061°47'0 0.0
2015-Mar-21 01:33N 17°01' W 061°47'0 0.0
2015-Mar-21 00:33N 17°01' W 061°47'0 0.0
2015-Mar-20 23:33N 17°01' W 061°47'0 0.0
2015-Mar-20 22:33N 17°01' W 061°47'0 0.0
2015-Mar-20 21:33N 17°01' W 061°47'0 0.0
2015-Mar-20 20:33N 17°01' W 061°47'1 0.8
2015-Mar-20 19:33N 17°00' W 061°47'3 3.1
2015-Mar-20 18:33N 17°01' W 061°50'0 0.1
2015-Mar-20 17:32N 17°01' W 061°50'0 0.0
2015-Mar-20 16:33N 17°01' W 061°50'6 5.5
2015-Mar-20 15:33N 16°55' W 061°50'6 6.5
2015-Mar-20 14:33N 17°01' W 061°47'0 0.5
2015-Mar-20 13:31N 17°01' W 061°47'0 0.0
2015-Mar-20 12:31N 17°01' W 061°47'0 0.0
2015-Mar-20 11:31N 17°01' W 061°47'0 0.0
2015-Mar-20 10:31N 17°01' W 061°47'0 0.0
2015-Mar-20 09:31N 17°01' W 061°47'0 0.0
2015-Mar-20 08:31N 17°01' W 061°47'0 0.0
2015-Mar-20 07:31N 17°01' W 061°47'0 0.0
2015-Mar-20 06:31N 17°01' W 061°47'0 0.0
2015-Mar-20 05:31N 17°01' W 061°47'0 0.0
2015-Mar-20 04:31N 17°01' W 061°47'0 0.0
2015-Mar-20 03:31N 17°01' W 061°47'0 0.0
2015-Mar-20 02:31N 17°01' W 061°47'0 0.0
2015-Mar-20 01:31N 17°01' W 061°47'0 0.0
2015-Mar-20 00:31N 17°01' W 061°47'0 0.0
2015-Mar-19 23:31N 17°01' W 061°47'0 0.0
2015-Mar-19 22:31N 17°01' W 061°47'0 0.0
2015-Mar-19 21:31N 17°01' W 061°47'0 0.0
2015-Mar-19 20:31N 17°01' W 061°47'0 0.0
2015-Mar-19 19:32N 17°01' W 061°47'0 0.0
2015-Mar-19 18:31N 17°01' W 061°47'0 0.0
2015-Mar-19 17:31N 17°01' W 061°47'0 0.0
2015-Mar-19 16:31N 17°01' W 061°47'0 0.0
2015-Mar-19 15:31N 17°01' W 061°47'0 0.0
2015-Mar-19 14:31N 17°01' W 061°47'0 0.0
2015-Mar-19 13:31N 17°01' W 061°47'0 0.0
2015-Mar-19 12:31N 17°01' W 061°47'0 0.0
2015-Mar-19 11:31N 17°01' W 061°47'0 0.0
2015-Mar-19 10:31N 17°01' W 061°47'0 0.0
2015-Mar-19 09:31N 17°01' W 061°47'0 0.0
2015-Mar-19 08:31N 17°01' W 061°47'0 0.0
2015-Mar-19 07:31N 17°01' W 061°47'0 0.0
2015-Mar-19 06:31N 17°01' W 061°47'0 0.0
2015-Mar-19 05:31N 17°01' W 061°47'0 0.0
2015-Mar-19 04:32N 17°01' W 061°47'0 0.0
2015-Mar-19 03:32N 17°01' W 061°47'0 0.0
2015-Mar-19 02:32N 17°01' W 061°47'0 0.0
2015-Mar-19 01:32N 17°01' W 061°47'0 0.0
2015-Mar-19 00:32N 17°01' W 061°47'0 0.0
2015-Mar-18 23:32N 17°01' W 061°47'0 0.0
2015-Mar-18 22:32N 17°01' W 061°47'0 0.0
2015-Mar-18 21:32N 17°01' W 061°47'0 0.0
2015-Mar-18 20:32N 17°01' W 061°47'0 0.0
2015-Mar-18 19:32N 17°01' W 061°47'0 0.0
2015-Mar-18 18:32N 17°01' W 061°47'0 0.0
2015-Mar-18 17:32N 17°01' W 061°47'0 0.0
2015-Mar-18 16:32N 17°01' W 061°47'0 0.0
2015-Mar-18 15:32N 17°01' W 061°47'0 0.0
2015-Mar-18 14:32N 17°01' W 061°47'0 0.0
2015-Mar-18 13:32N 17°01' W 061°47'0 0.0
2015-Mar-18 12:32N 17°01' W 061°47'0 0.0
2015-Mar-18 11:32N 17°01' W 061°47'0 0.0
2015-Mar-18 10:32N 17°01' W 061°47'0 0.0
2015-Mar-18 09:32N 17°01' W 061°47'0 0.0
2015-Mar-18 08:32N 17°01' W 061°47'0 0.0
2015-Mar-18 07:32N 17°01' W 061°47'0 0.0
2015-Mar-18 06:32N 17°01' W 061°47'0 0.0
2015-Mar-18 05:32N 17°01' W 061°47'0 0.0
2015-Mar-18 04:29N 17°01' W 061°47'0 0.0
2015-Mar-18 03:32N 17°01' W 061°47'0 0.0
2015-Mar-18 02:32N 17°01' W 061°47'0 0.0
2015-Mar-18 01:29N 17°01' W 061°47'0 0.0
2015-Mar-18 00:32N 17°01' W 061°47'0 0.0
2015-Mar-17 23:32N 17°01' W 061°47'0 0.0
2015-Mar-17 22:32N 17°01' W 061°47'0 0.0
2015-Mar-17 21:32N 17°01' W 061°47'  
Track history (hours):
 
Tides and Currents Weather Stations Pressure Air Temp Water Temp Dewpoint Dewpoint Depression Visibility Wind Speed Wind Dir Waves Ship Positions

Sy Liara

Last reported at 2015-Mar-27 07:32 UTC. Time now 2015-Mar-27 08:13 UTC.
Position N 17°01' W 061°47'.

Length 30 m.

Type: Sailing vessel. MMSI: 235068934.

Date/timePositionNaut miles runAvg speedWind from/ knotsBaromVisibWave heightAir tempDewpointWater temp
2015-Mar-27 07:32N 17°01' W 061°47'0 0.0
2015-Mar-27 06:32N 17°01' W 061°47'0 0.0
2015-Mar-27 05:32N 17°01' W 061°47'0 0.0
2015-Mar-27 04:32N 17°01' W 061°47'0 0.0
2015-Mar-27 03:32N 17°01' W 061°47'0 0.0
2015-Mar-27 02:32N 17°01' W 061°47'0 0.0
2015-Mar-27 01:32N 17°01' W 061°47'0 0.0
2015-Mar-27 00:32N 17°01' W 061°47'0 0.0
2015-Mar-26 23:32N 17°01' W 061°47'0 0.0
2015-Mar-26 22:32N 17°01' W 061°47'0 0.0
2015-Mar-26 21:33N 17°01' W 061°47'6 5.9
2015-Mar-26 20:33N 16°56' W 061°50'4 1.4
2015-Mar-26 17:33N 17°00' W 061°50'0 0.3
2015-Mar-26 16:08N 17°00' W 061°50'0 0.1
2015-Mar-26 13:33N 17°01' W 061°50'0 0.0
2015-Mar-26 12:33N 17°01' W 061°50'0 0.0
2015-Mar-26 11:31N 17°01' W 061°50'0 0.0
2015-Mar-26 10:24N 17°01' W 061°50'0 0.0
2015-Mar-26 09:33N 17°01' W 061°50'0 0.0
2015-Mar-26 08:33N 17°01' W 061°50'0 0.0
2015-Mar-26 07:24N 17°01' W 061°50'0 0.0
2015-Mar-26 06:31N 17°01' W 061°50'0 0.0
2015-Mar-26 04:27N 17°01' W 061°50'0 0.0
2015-Mar-26 03:31N 17°01' W 061°50'0 0.0
2015-Mar-26 02:31N 17°01' W 061°50'0 0.0
2015-Mar-26 01:22N 17°01' W 061°50'0 0.0
2015-Mar-26 00:15N 17°01' W 061°50'0 0.0
2015-Mar-25 20:19N 17°01' W 061°50'3 0.1
2015-Mar-23 21:08N 17°01' W 061°47'0 0.0
2015-Mar-23 20:32N 17°01' W 061°47'  
2015-Mar-21 13:06N 17°01' W 061°47'0 0.0
2015-Mar-21 12:33N 17°01' W 061°47'0 0.0
2015-Mar-21 11:33N 17°01' W 061°47'0 0.0
2015-Mar-21 10:33N 17°01' W 061°47'0 0.0
2015-Mar-21 09:33N 17°01' W 061°47'0 0.0
2015-Mar-21 08:33N 17°01' W 061°47'0 0.0
2015-Mar-21 07:33N 17°01' W 061°47'0 0.0
2015-Mar-21 06:33N 17°01' W 061°47'0 0.0
2015-Mar-21 05:33N 17°01' W 061°47'0 0.0
2015-Mar-21 04:33N 17°01' W 061°47'0 0.0
2015-Mar-21 03:30N 17°01' W 061°47'0 0.0
2015-Mar-21 02:33N 17°01' W 061°47'0 0.0
2015-Mar-21 01:33N 17°01' W 061°47'0 0.0
2015-Mar-21 00:33N 17°01' W 061°47'0 0.0
2015-Mar-20 23:33N 17°01' W 061°47'0 0.0
2015-Mar-20 22:33N 17°01' W 061°47'0 0.0
2015-Mar-20 21:33N 17°01' W 061°47'0 0.0
2015-Mar-20 20:33N 17°01' W 061°47'1 0.8
2015-Mar-20 19:33N 17°00' W 061°47'3 3.1
2015-Mar-20 18:33N 17°01' W 061°50'0 0.1
2015-Mar-20 17:32N 17°01' W 061°50'0 0.0
2015-Mar-20 16:33N 17°01' W 061°50'6 5.5
2015-Mar-20 15:33N 16°55' W 061°50'6 6.5
2015-Mar-20 14:33N 17°01' W 061°47'0 0.5
2015-Mar-20 13:31N 17°01' W 061°47'0 0.0
2015-Mar-20 12:31N 17°01' W 061°47'0 0.0
2015-Mar-20 11:31N 17°01' W 061°47'0 0.0
2015-Mar-20 10:31N 17°01' W 061°47'0 0.0
2015-Mar-20 09:31N 17°01' W 061°47'0 0.0
2015-Mar-20 08:31N 17°01' W 061°47'0 0.0
2015-Mar-20 07:31N 17°01' W 061°47'0 0.0
2015-Mar-20 06:31N 17°01' W 061°47'0 0.0
2015-Mar-20 05:31N 17°01' W 061°47'0 0.0
2015-Mar-20 04:31N 17°01' W 061°47'0 0.0
2015-Mar-20 03:31N 17°01' W 061°47'0 0.0
2015-Mar-20 02:31N 17°01' W 061°47'0 0.0
2015-Mar-20 01:31N 17°01' W 061°47'0 0.0
2015-Mar-20 00:31N 17°01' W 061°47'0 0.0
2015-Mar-19 23:31N 17°01' W 061°47'0 0.0
2015-Mar-19 22:31N 17°01' W 061°47'0 0.0
2015-Mar-19 21:31N 17°01' W 061°47'0 0.0
2015-Mar-19 20:31N 17°01' W 061°47'0 0.0
2015-Mar-19 19:32N 17°01' W 061°47'0 0.0
2015-Mar-19 18:31N 17°01' W 061°47'0 0.0
2015-Mar-19 17:31N 17°01' W 061°47'0 0.0
2015-Mar-19 16:31N 17°01' W 061°47'0 0.0
2015-Mar-19 15:31N 17°01' W 061°47'0 0.0
2015-Mar-19 14:31N 17°01' W 061°47'0 0.0
2015-Mar-19 13:31N 17°01' W 061°47'0 0.0
2015-Mar-19 12:31N 17°01' W 061°47'0 0.0
2015-Mar-19 11:31N 17°01' W 061°47'0 0.0
2015-Mar-19 10:31N 17°01' W 061°47'0 0.0
2015-Mar-19 09:31N 17°01' W 061°47'0 0.0
2015-Mar-19 08:31N 17°01' W 061°47'0 0.0
2015-Mar-19 07:31N 17°01' W 061°47'0 0.0
2015-Mar-19 06:31N 17°01' W 061°47'0 0.0
2015-Mar-19 05:31N 17°01' W 061°47'0 0.0
2015-Mar-19 04:32N 17°01' W 061°47'0 0.0
2015-Mar-19 03:32N 17°01' W 061°47'0 0.0
2015-Mar-19 02:32N 17°01' W 061°47'0 0.0
2015-Mar-19 01:32N 17°01' W 061°47'0 0.0
2015-Mar-19 00:32N 17°01' W 061°47'0 0.0
2015-Mar-18 23:32N 17°01' W 061°47'0 0.0
2015-Mar-18 22:32N 17°01' W 061°47'0 0.0
2015-Mar-18 21:32N 17°01' W 061°47'0 0.0
2015-Mar-18 20:32N 17°01' W 061°47'0 0.0
2015-Mar-18 19:32N 17°01' W 061°47'0 0.0
2015-Mar-18 18:32N 17°01' W 061°47'0 0.0
2015-Mar-18 17:32N 17°01' W 061°47'0 0.0
2015-Mar-18 16:32N 17°01' W 061°47'0 0.0
2015-Mar-18 15:32N 17°01' W 061°47'0 0.0
2015-Mar-18 14:32N 17°01' W 061°47'0 0.0
2015-Mar-18 13:32N 17°01' W 061°47'0 0.0
2015-Mar-18 12:32N 17°01' W 061°47'0 0.0
2015-Mar-18 11:32N 17°01' W 061°47'0 0.0
2015-Mar-18 10:32N 17°01' W 061°47'0 0.0
2015-Mar-18 09:32N 17°01' W 061°47'0 0.0
2015-Mar-18 08:32N 17°01' W 061°47'0 0.0
2015-Mar-18 07:32N 17°01' W 061°47'0 0.0
2015-Mar-18 06:32N 17°01' W 061°47'0 0.0
2015-Mar-18 05:32N 17°01' W 061°47'0 0.0
2015-Mar-18 04:29N 17°01' W 061°47'0 0.0
2015-Mar-18 03:32N 17°01' W 061°47'0 0.0
2015-Mar-18 02:32N 17°01' W 061°47'0 0.0
2015-Mar-18 01:29N 17°01' W 061°47'0 0.0
2015-Mar-18 00:32N 17°01' W 061°47'0 0.0
2015-Mar-17 23:32N 17°01' W 061°47'0 0.0
2015-Mar-17 22:32N 17°01' W 061°47'0 0.0
2015-Mar-17 21:32N 17°01' W 061°47'  

Dump ship's entire track history